createdAt,value
2017-08-31T00:00:20.494Z,0.00
2017-08-31T00:01:20.495Z,0.00
2017-08-31T00:02:20.492Z,0.00
2017-08-31T00:03:20.489Z,0.00
2017-08-31T00:04:20.483Z,0.00
2017-08-31T00:05:20.477Z,0.00
2017-08-31T00:06:20.475Z,0.00
2017-08-31T00:07:20.471Z,0.00
2017-08-31T00:08:20.466Z,0.00
2017-08-31T00:09:20.463Z,0.00
2017-08-31T00:10:20.461Z,0.00
2017-08-31T00:11:20.457Z,0.00
2017-08-31T00:12:20.452Z,0.00
2017-08-31T00:13:20.453Z,0.00
2017-08-31T00:14:20.450Z,0.00
2017-08-31T00:15:20.447Z,0.00
2017-08-31T00:16:20.442Z,0.00
2017-08-31T00:17:20.442Z,0.00
2017-08-31T00:18:20.436Z,0.00
2017-08-31T00:19:20.434Z,0.00
2017-08-31T00:20:20.428Z,0.00
2017-08-31T00:21:20.421Z,0.00
2017-08-31T00:22:20.418Z,0.00
2017-08-31T00:23:20.414Z,0.00
2017-08-31T00:24:20.410Z,0.00
2017-08-31T00:25:20.407Z,0.00
2017-08-31T00:26:20.403Z,0.00
2017-08-31T00:27:20.401Z,0.00
2017-08-31T00:28:20.398Z,0.00
2017-08-31T00:29:20.397Z,0.00
2017-08-31T00:30:20.394Z,0.00
2017-08-31T00:31:20.391Z,0.00
2017-08-31T00:32:20.386Z,0.00
2017-08-31T00:33:20.384Z,0.00
2017-08-31T00:34:20.378Z,0.00
2017-08-31T00:35:20.377Z,0.00
2017-08-31T00:36:20.372Z,0.00
2017-08-31T00:37:20.363Z,0.00
2017-08-31T00:38:20.359Z,0.00
2017-08-31T00:39:20.357Z,0.00
2017-08-31T00:40:20.353Z,0.00
2017-08-31T00:41:20.349Z,0.00
2017-08-31T00:42:20.346Z,0.00
2017-08-31T00:43:20.342Z,0.00
2017-08-31T00:44:20.336Z,0.00
2017-08-31T00:45:20.337Z,0.00
2017-08-31T00:46:20.333Z,0.00
2017-08-31T00:47:20.331Z,0.00
2017-08-31T00:48:20.326Z,0.00
2017-08-31T00:49:20.323Z,0.00
2017-08-31T00:50:20.319Z,0.00
2017-08-31T00:51:20.315Z,0.00
2017-08-31T00:52:20.310Z,0.00
2017-08-31T00:53:20.301Z,0.00
2017-08-31T00:54:20.299Z,0.00
2017-08-31T00:55:20.294Z,0.00
2017-08-31T00:56:20.289Z,0.00
2017-08-31T00:57:20.288Z,0.00
2017-08-31T00:58:20.282Z,0.00
2017-08-31T00:59:20.279Z,0.00
2017-08-31T01:00:20.274Z,0.00
2017-08-31T01:01:20.275Z,0.00
2017-08-31T01:02:20.270Z,0.00
2017-08-31T01:03:20.267Z,0.00
2017-08-31T01:04:20.261Z,0.00
2017-08-31T01:05:20.261Z,0.00
2017-08-31T01:06:20.280Z,0.00
2017-08-31T01:07:20.249Z,0.00
2017-08-31T01:08:20.244Z,0.00
2017-08-31T01:09:20.235Z,0.00
2017-08-31T01:10:20.232Z,0.00
2017-08-31T01:11:20.228Z,0.00
2017-08-31T01:12:20.223Z,0.00
2017-08-31T01:13:20.220Z,0.00
2017-08-31T01:14:20.214Z,0.00
2017-08-31T01:15:20.210Z,0.00
2017-08-31T01:16:20.207Z,0.00
2017-08-31T01:17:20.207Z,0.00
2017-08-31T01:18:20.203Z,0.00
2017-08-31T01:19:20.198Z,0.00
2017-08-31T01:20:20.194Z,0.00
2017-08-31T01:21:20.190Z,0.00
2017-08-31T01:22:20.185Z,0.00
2017-08-31T01:23:20.210Z,0.00
2017-08-31T01:24:20.177Z,0.00
2017-08-31T01:25:20.167Z,0.00
2017-08-31T01:26:20.164Z,0.00
2017-08-31T01:27:20.159Z,0.00
2017-08-31T01:28:20.155Z,0.00
2017-08-31T01:29:20.150Z,0.00
2017-08-31T01:30:20.146Z,0.00
2017-08-31T01:31:20.142Z,0.00
2017-08-31T01:32:20.148Z,0.00
2017-08-31T01:33:20.137Z,0.00
2017-08-31T01:34:20.133Z,0.00
2017-08-31T01:35:20.128Z,0.00
2017-08-31T01:36:20.123Z,0.00
2017-08-31T01:37:20.118Z,0.00
2017-08-31T01:38:20.115Z,0.00
2017-08-31T01:39:20.110Z,0.00
2017-08-31T01:40:20.106Z,0.00
2017-08-31T01:41:20.097Z,0.00
2017-08-31T01:42:20.092Z,0.00
2017-08-31T01:43:20.089Z,0.00
2017-08-31T01:44:20.106Z,0.00
2017-08-31T01:45:20.087Z,0.00
2017-08-31T01:46:20.078Z,0.00
2017-08-31T01:47:20.070Z,0.00
2017-08-31T01:48:20.066Z,0.00
2017-08-31T01:49:20.065Z,0.00
2017-08-31T01:50:20.060Z,0.00
2017-08-31T01:51:20.054Z,0.00
2017-08-31T01:52:20.049Z,0.00
2017-08-31T01:53:20.046Z,0.00
2017-08-31T01:54:20.040Z,0.00
2017-08-31T01:55:20.037Z,0.00
2017-08-31T01:56:20.031Z,0.00
2017-08-31T01:57:20.021Z,0.00
2017-08-31T01:58:20.018Z,0.00
2017-08-31T01:59:20.013Z,0.00
2017-08-31T02:00:20.006Z,0.00
2017-08-31T02:01:20.003Z,0.00
2017-08-31T02:02:19.999Z,0.00
2017-08-31T02:03:19.993Z,0.00
2017-08-31T02:04:19.988Z,0.00
2017-08-31T02:05:19.988Z,0.00
2017-08-31T02:06:19.984Z,0.00
2017-08-31T02:07:19.979Z,0.00
2017-08-31T02:08:19.973Z,0.00
2017-08-31T02:09:19.964Z,0.00
2017-08-31T02:10:19.959Z,0.00
2017-08-31T02:11:19.955Z,0.00
2017-08-31T02:12:19.949Z,0.00
2017-08-31T02:13:19.949Z,0.00
2017-08-31T02:14:19.945Z,0.00
2017-08-31T02:15:19.941Z,0.00
2017-08-31T02:16:19.935Z,0.00
2017-08-31T02:17:19.931Z,0.00
2017-08-31T02:18:19.926Z,0.00
2017-08-31T02:19:19.921Z,0.00
2017-08-31T02:20:19.916Z,0.00
2017-08-31T02:21:19.907Z,0.00
2017-08-31T02:22:19.905Z,0.00
2017-08-31T02:23:19.898Z,0.00
2017-08-31T02:24:19.891Z,0.00
2017-08-31T02:25:19.886Z,0.00
2017-08-31T02:26:19.883Z,0.00
2017-08-31T02:27:19.876Z,0.00
2017-08-31T02:28:19.877Z,0.00
2017-08-31T02:29:19.872Z,0.00
2017-08-31T02:30:19.870Z,0.00
2017-08-31T02:31:19.862Z,0.00
2017-08-31T02:32:19.856Z,0.00
2017-08-31T02:33:19.850Z,0.00
2017-08-31T02:34:19.846Z,0.00
2017-08-31T02:35:19.841Z,0.00
2017-08-31T02:36:19.842Z,0.00
2017-08-31T02:37:19.826Z,0.00
2017-08-31T02:38:19.823Z,0.00
2017-08-31T02:39:19.816Z,0.00
2017-08-31T02:40:19.812Z,0.00
2017-08-31T02:41:19.806Z,0.00
2017-08-31T02:42:19.802Z,0.00
2017-08-31T02:43:19.797Z,0.00
2017-08-31T02:44:19.791Z,0.00
2017-08-31T02:45:19.791Z,0.00
2017-08-31T02:46:19.785Z,0.00
2017-08-31T02:47:19.780Z,0.00
2017-08-31T02:48:19.775Z,0.00
2017-08-31T02:49:19.769Z,0.00
2017-08-31T02:50:19.765Z,0.00
2017-08-31T02:51:19.759Z,0.00
2017-08-31T02:52:19.753Z,0.00
2017-08-31T02:53:19.745Z,0.00
2017-08-31T02:54:19.740Z,0.00
2017-08-31T02:55:19.734Z,0.00
2017-08-31T02:56:19.727Z,0.00
2017-08-31T02:57:19.724Z,0.00
2017-08-31T02:58:19.718Z,0.00
2017-08-31T02:59:19.714Z,0.00
2017-08-31T03:00:19.708Z,0.00
2017-08-31T03:01:19.707Z,0.00
2017-08-31T03:02:19.701Z,0.00
2017-08-31T03:03:19.695Z,0.00
2017-08-31T03:04:19.689Z,0.00
2017-08-31T03:05:19.684Z,0.00
2017-08-31T03:06:19.679Z,0.00
2017-08-31T03:07:19.677Z,0.00
2017-08-31T03:08:19.669Z,0.00
2017-08-31T03:09:19.658Z,0.00
2017-08-31T03:10:19.654Z,0.00
2017-08-31T03:11:19.648Z,0.00
2017-08-31T03:12:19.643Z,0.00
2017-08-31T03:13:19.642Z,0.00
2017-08-31T03:14:19.636Z,0.00
2017-08-31T03:15:19.631Z,0.00
2017-08-31T03:16:19.626Z,0.00
2017-08-31T03:17:19.617Z,0.00
2017-08-31T03:18:19.611Z,0.00
2017-08-31T03:19:19.606Z,0.00
2017-08-31T03:20:19.599Z,0.00
2017-08-31T03:21:19.594Z,0.00
2017-08-31T03:22:19.589Z,0.00
2017-08-31T03:23:19.584Z,0.00
2017-08-31T03:24:19.578Z,0.00
2017-08-31T03:25:19.577Z,0.00
2017-08-31T03:26:19.571Z,0.00
2017-08-31T03:27:19.567Z,0.00
2017-08-31T03:28:19.559Z,0.00
2017-08-31T03:29:19.556Z,0.00
2017-08-31T03:30:19.552Z,0.00
2017-08-31T03:31:19.547Z,0.00
2017-08-31T03:32:19.538Z,0.00
2017-08-31T03:33:19.528Z,0.00
2017-08-31T03:34:19.524Z,0.00
2017-08-31T03:35:19.517Z,0.00
2017-08-31T03:36:19.511Z,0.00
2017-08-31T03:37:19.507Z,0.00
2017-08-31T03:38:19.501Z,0.00
2017-08-31T03:39:19.495Z,0.00
2017-08-31T03:40:19.489Z,0.00
2017-08-31T03:41:19.488Z,0.00
2017-08-31T03:42:19.484Z,0.00
2017-08-31T03:43:19.478Z,0.00
2017-08-31T03:44:19.473Z,0.00
2017-08-31T03:45:19.466Z,0.00
2017-08-31T03:46:19.460Z,0.00
2017-08-31T03:47:19.456Z,0.00
2017-08-31T03:48:19.449Z,0.00
2017-08-31T03:49:19.438Z,0.00
2017-08-31T03:50:19.435Z,0.00
2017-08-31T03:51:19.427Z,0.00
2017-08-31T03:52:19.422Z,0.00
2017-08-31T03:53:19.417Z,0.00
2017-08-31T03:54:19.410Z,0.00
2017-08-31T03:55:19.409Z,0.00
2017-08-31T03:56:19.399Z,0.00
2017-08-31T03:57:19.402Z,0.00
2017-08-31T03:58:19.397Z,0.00
2017-08-31T03:59:19.386Z,0.00
2017-08-31T04:00:19.381Z,0.00
2017-08-31T04:01:19.374Z,0.00
2017-08-31T04:02:19.370Z,0.00
2017-08-31T04:03:19.365Z,0.00
2017-08-31T04:04:19.358Z,0.00
2017-08-31T04:05:19.349Z,0.00
2017-08-31T04:06:19.347Z,0.00
2017-08-31T04:07:19.336Z,0.00
2017-08-31T04:08:19.329Z,0.00
2017-08-31T04:09:19.325Z,0.00
2017-08-31T04:10:19.320Z,0.00
2017-08-31T04:11:19.315Z,0.00
2017-08-31T04:12:19.307Z,0.00
2017-08-31T04:13:19.307Z,0.00
2017-08-31T04:14:19.301Z,0.00
2017-08-31T04:15:19.296Z,0.00
2017-08-31T04:16:19.289Z,0.00
2017-08-31T04:17:19.280Z,0.00
2017-08-31T04:18:19.273Z,0.00
2017-08-31T04:19:19.268Z,0.00
2017-08-31T04:20:19.260Z,0.00
2017-08-31T04:21:19.260Z,0.00
2017-08-31T04:22:19.254Z,0.00
2017-08-31T04:23:19.249Z,0.00
2017-08-31T04:24:19.241Z,0.00
2017-08-31T04:25:19.237Z,0.00
2017-08-31T04:26:19.231Z,0.00
2017-08-31T04:27:19.224Z,0.00
2017-08-31T04:28:19.219Z,0.00
2017-08-31T04:29:19.212Z,4.00
2017-08-31T04:30:19.204Z,4.00
2017-08-31T04:31:19.197Z,4.00
2017-08-31T04:32:19.191Z,0.00
2017-08-31T04:33:19.185Z,4.00
2017-08-31T04:34:19.178Z,4.00
2017-08-31T04:35:19.173Z,8.00
2017-08-31T04:36:19.167Z,8.00
2017-08-31T04:37:19.166Z,8.00
2017-08-31T04:38:19.159Z,4.00
2017-08-31T04:39:19.155Z,8.00
2017-08-31T04:40:19.148Z,8.00
2017-08-31T04:41:19.142Z,8.00
2017-08-31T04:42:19.140Z,4.00
2017-08-31T04:43:19.131Z,8.00
2017-08-31T04:44:19.124Z,8.00
2017-08-31T04:45:19.113Z,8.00
2017-08-31T04:46:19.107Z,8.00
2017-08-31T04:47:19.102Z,8.00
2017-08-31T04:48:19.096Z,8.00
2017-08-31T04:49:19.090Z,8.00
2017-08-31T04:50:19.083Z,12.00
2017-08-31T04:51:19.078Z,16.00
2017-08-31T04:52:19.071Z,16.00
2017-08-31T04:53:19.071Z,20.00
2017-08-31T04:54:19.063Z,28.00
2017-08-31T04:55:19.059Z,28.00
2017-08-31T04:56:19.053Z,24.00
2017-08-31T04:57:19.047Z,28.00
2017-08-31T04:58:19.039Z,40.00
2017-08-31T04:59:19.034Z,28.00
2017-08-31T05:00:19.027Z,36.00
2017-08-31T05:01:19.017Z,40.00
2017-08-31T05:02:19.013Z,44.00
2017-08-31T05:03:19.006Z,56.00
2017-08-31T05:04:18.999Z,96.00
2017-08-31T05:05:18.993Z,80.00
2017-08-31T05:06:18.991Z,84.00
2017-08-31T05:07:18.981Z,112.00
2017-08-31T05:08:18.975Z,104.00
2017-08-31T05:09:18.975Z,100.00
2017-08-31T05:10:18.967Z,88.00
2017-08-31T05:11:18.961Z,144.00
2017-08-31T05:12:18.954Z,164.00
2017-08-31T05:13:18.950Z,176.00
2017-08-31T05:14:18.944Z,172.00
2017-08-31T05:15:18.939Z,164.00
2017-08-31T05:16:18.931Z,172.00
2017-08-31T05:17:18.921Z,156.00
2017-08-31T05:18:18.916Z,144.00
2017-08-31T05:19:18.909Z,136.00
2017-08-31T05:20:18.903Z,128.00
2017-08-31T05:21:18.901Z,144.00
2017-08-31T05:22:18.894Z,160.00
2017-08-31T05:23:18.889Z,176.00
2017-08-31T05:24:18.882Z,144.00
2017-08-31T05:25:18.873Z,136.00
2017-08-31T05:26:18.867Z,124.00
2017-08-31T05:27:18.865Z,144.00
2017-08-31T05:28:18.854Z,152.00
2017-08-31T05:29:18.848Z,152.00
2017-08-31T05:30:18.843Z,148.00
2017-08-31T05:31:18.837Z,164.00
2017-08-31T05:32:18.830Z,136.00
2017-08-31T05:33:18.829Z,120.00
2017-08-31T05:34:18.822Z,144.00
2017-08-31T05:35:18.817Z,140.00
2017-08-31T05:36:18.809Z,140.00
2017-08-31T05:37:18.804Z,128.00
2017-08-31T05:38:18.797Z,156.00
2017-08-31T05:39:18.793Z,172.00
2017-08-31T05:40:18.785Z,200.00
2017-08-31T05:41:18.774Z,248.00
2017-08-31T05:42:18.770Z,252.00
2017-08-31T05:43:18.764Z,260.00
2017-08-31T05:44:18.758Z,256.00
2017-08-31T05:45:18.752Z,224.00
2017-08-31T05:46:18.745Z,300.00
2017-08-31T05:47:18.740Z,308.00
2017-08-31T05:48:18.733Z,312.00
2017-08-31T05:49:18.731Z,352.00
2017-08-31T05:50:18.728Z,332.00
2017-08-31T05:51:18.719Z,392.00
2017-08-31T05:52:18.714Z,372.00
2017-08-31T05:53:18.707Z,380.00
2017-08-31T05:54:18.701Z,408.00
2017-08-31T05:55:18.697Z,472.00
2017-08-31T05:56:18.689Z,496.00
2017-08-31T05:57:18.679Z,504.00
2017-08-31T05:58:18.675Z,448.00
2017-08-31T05:59:18.667Z,440.00
2017-08-31T06:00:18.661Z,492.00
2017-08-31T06:01:18.657Z,600.00
2017-08-31T06:02:18.650Z,796.00
2017-08-31T06:03:18.644Z,868.00
2017-08-31T06:04:18.637Z,832.00
2017-08-31T06:05:18.635Z,788.00
2017-08-31T06:06:18.629Z,732.00
2017-08-31T06:07:18.625Z,776.00
2017-08-31T06:08:18.618Z,828.00
2017-08-31T06:09:18.611Z,936.00
2017-08-31T06:10:18.607Z,912.00
2017-08-31T06:11:18.600Z,992.00
2017-08-31T06:12:18.594Z,1096.00
2017-08-31T06:13:18.585Z,1104.00
2017-08-31T06:14:18.579Z,1148.00
2017-08-31T06:15:18.573Z,1224.00
2017-08-31T06:16:18.566Z,1068.00
2017-08-31T06:17:18.577Z,884.00
2017-08-31T06:18:18.556Z,1000.00
2017-08-31T06:19:18.548Z,920.00
2017-08-31T06:20:18.542Z,1000.00
2017-08-31T06:21:18.541Z,1016.00
2017-08-31T06:22:18.534Z,1232.00
2017-08-31T06:23:18.529Z,1272.00
2017-08-31T06:24:18.521Z,1300.00
2017-08-31T06:25:18.515Z,1328.00
2017-08-31T06:26:18.509Z,1260.00
2017-08-31T06:27:18.502Z,1156.00
2017-08-31T06:28:18.495Z,1304.00
2017-08-31T06:29:18.493Z,1192.00
2017-08-31T06:30:18.495Z,1304.00
2017-08-31T06:31:18.483Z,1256.00
2017-08-31T06:32:18.476Z,1568.00
2017-08-31T06:33:18.471Z,1716.00
2017-08-31T06:34:18.463Z,1524.00
2017-08-31T06:35:18.459Z,1252.00
2017-08-31T06:36:18.452Z,1400.00
2017-08-31T06:37:18.441Z,1488.00
2017-08-31T06:38:18.436Z,1748.00
2017-08-31T06:39:18.439Z,1632.00
2017-08-31T06:40:18.441Z,1824.00
2017-08-31T06:41:18.419Z,2084.00
2017-08-31T06:42:18.414Z,1768.00
2017-08-31T06:43:18.407Z,1832.00
2017-08-31T06:44:18.400Z,1712.00
2017-08-31T06:45:18.398Z,1712.00
2017-08-31T06:46:18.394Z,1948.00
2017-08-31T06:47:18.388Z,1944.00
2017-08-31T06:48:18.381Z,2336.00
2017-08-31T06:49:18.377Z,2376.00
2017-08-31T06:50:18.370Z,1756.00
2017-08-31T06:51:18.365Z,2228.00
2017-08-31T06:52:18.359Z,2304.00
2017-08-31T06:53:18.349Z,1976.00
2017-08-31T06:54:18.345Z,1976.00
2017-08-31T06:55:18.339Z,1936.00
2017-08-31T06:56:18.332Z,1752.00
2017-08-31T06:57:18.326Z,1912.00
2017-08-31T06:58:18.321Z,1916.00
2017-08-31T06:59:18.315Z,1836.00
2017-08-31T07:00:18.310Z,1812.00
2017-08-31T07:01:18.309Z,1536.00
2017-08-31T07:02:18.303Z,1524.00
2017-08-31T07:03:18.298Z,1776.00
2017-08-31T07:04:18.291Z,1488.00
2017-08-31T07:05:18.285Z,1948.00
2017-08-31T07:06:18.280Z,1960.00
2017-08-31T07:07:18.288Z,2720.00
2017-08-31T07:08:18.269Z,2592.00
2017-08-31T07:09:18.260Z,2200.00
2017-08-31T07:10:18.254Z,2348.00
2017-08-31T07:11:18.248Z,2468.00
2017-08-31T07:12:18.242Z,2808.00
2017-08-31T07:13:18.237Z,2468.00
2017-08-31T07:14:18.232Z,1620.00
2017-08-31T07:15:18.227Z,1808.00
2017-08-31T07:16:18.221Z,1528.00
2017-08-31T07:17:18.219Z,2044.00
2017-08-31T07:18:18.213Z,1636.00
2017-08-31T07:19:18.209Z,1248.00
2017-08-31T07:20:18.202Z,1416.00
2017-08-31T07:21:18.199Z,1268.00
2017-08-31T07:22:18.191Z,1332.00
2017-08-31T07:23:18.187Z,1096.00
2017-08-31T07:24:18.181Z,1456.00
2017-08-31T07:25:18.171Z,1116.00
2017-08-31T07:26:18.166Z,1332.00
2017-08-31T07:27:18.160Z,1236.00
2017-08-31T07:28:18.154Z,1340.00
2017-08-31T07:29:18.154Z,1184.00
2017-08-31T07:30:18.148Z,1384.00
2017-08-31T07:31:18.143Z,1836.00
2017-08-31T07:32:18.137Z,2560.00
2017-08-31T07:33:18.126Z,2096.00
2017-08-31T07:34:18.122Z,2068.00
2017-08-31T07:35:18.116Z,2080.00
2017-08-31T07:36:18.109Z,1848.00
2017-08-31T07:37:18.104Z,1920.00
2017-08-31T07:38:18.099Z,2056.00
2017-08-31T07:39:18.095Z,2400.00
2017-08-31T07:40:18.088Z,2692.00
2017-08-31T07:41:18.086Z,2408.00
2017-08-31T07:42:18.080Z,2444.00
2017-08-31T07:43:18.076Z,2196.00
2017-08-31T07:44:18.070Z,2000.00
2017-08-31T07:45:18.064Z,1960.00
2017-08-31T07:46:18.059Z,2272.00
2017-08-31T07:47:18.060Z,2084.00
2017-08-31T07:48:18.047Z,1740.00
2017-08-31T07:49:18.037Z,1692.00
2017-08-31T07:50:18.032Z,2144.00
2017-08-31T07:51:18.026Z,2560.00
2017-08-31T07:52:18.026Z,2348.00
2017-08-31T07:53:18.019Z,2176.00
2017-08-31T07:54:18.025Z,2540.00
2017-08-31T07:55:18.006Z,2740.00
2017-08-31T07:56:17.997Z,4656.00
2017-08-31T07:57:18.007Z,5952.00
2017-08-31T07:58:17.992Z,6196.00
2017-08-31T07:59:17.987Z,6384.00
2017-08-31T08:00:17.980Z,5928.00
2017-08-31T08:01:17.976Z,6196.00
2017-08-31T08:02:17.970Z,6392.00
2017-08-31T08:03:17.966Z,5484.00
2017-08-31T08:04:17.960Z,5480.00
2017-08-31T08:05:17.951Z,4836.00
2017-08-31T08:06:17.944Z,4500.00
2017-08-31T08:07:17.940Z,4600.00
2017-08-31T08:08:17.935Z,3516.00
2017-08-31T08:09:17.928Z,3288.00
2017-08-31T08:10:17.924Z,3212.00
2017-08-31T08:11:17.920Z,2880.00
2017-08-31T08:12:17.914Z,3860.00
2017-08-31T08:13:17.914Z,3684.00
2017-08-31T08:14:17.915Z,2736.00
2017-08-31T08:15:17.906Z,3212.00
2017-08-31T08:16:17.897Z,3116.00
2017-08-31T08:17:17.893Z,2668.00
2017-08-31T08:18:17.889Z,2668.00
2017-08-31T08:19:17.884Z,2316.00
2017-08-31T08:20:17.877Z,2056.00
2017-08-31T08:21:17.871Z,1860.00
2017-08-31T08:22:17.864Z,1832.00
2017-08-31T08:23:17.862Z,1732.00
2017-08-31T08:24:17.854Z,1656.00
2017-08-31T08:25:17.851Z,1764.00
2017-08-31T08:26:17.846Z,1800.00
2017-08-31T08:27:17.842Z,1664.00
2017-08-31T08:28:17.838Z,1484.00
2017-08-31T08:29:17.833Z,1312.00
2017-08-31T08:30:17.830Z,1260.00
2017-08-31T08:31:17.824Z,1164.00
2017-08-31T08:32:17.819Z,1324.00
2017-08-31T08:33:17.810Z,1584.00
2017-08-31T08:34:17.806Z,1756.00
2017-08-31T08:35:17.800Z,2036.00
2017-08-31T08:36:17.794Z,1888.00
2017-08-31T08:37:17.793Z,2396.00
2017-08-31T08:38:17.790Z,2164.00
2017-08-31T08:39:17.785Z,2028.00
2017-08-31T08:40:17.779Z,2280.00
2017-08-31T08:41:17.774Z,3356.00
2017-08-31T08:42:17.771Z,3860.00
2017-08-31T08:43:17.763Z,3704.00
2017-08-31T08:44:17.757Z,3568.00
2017-08-31T08:45:17.749Z,5544.00
2017-08-31T08:46:17.744Z,8480.00
2017-08-31T08:47:17.739Z,3932.00
2017-08-31T08:48:17.734Z,2140.00
2017-08-31T08:49:17.733Z,1936.00
2017-08-31T08:50:17.723Z,2324.00
2017-08-31T08:51:17.718Z,2880.00
2017-08-31T08:52:17.712Z,3368.00
2017-08-31T08:53:17.712Z,4076.00
2017-08-31T08:54:17.707Z,4008.00
2017-08-31T08:55:17.702Z,4112.00
2017-08-31T08:56:17.695Z,3236.00
2017-08-31T08:57:17.691Z,4500.00
2017-08-31T08:58:17.687Z,6560.00
2017-08-31T08:59:17.681Z,7244.00
2017-08-31T09:00:17.676Z,7820.00
2017-08-31T09:01:17.670Z,10132.00
2017-08-31T09:02:17.662Z,13236.00
2017-08-31T09:03:17.658Z,14544.00
2017-08-31T09:04:17.652Z,16672.00
2017-08-31T09:05:17.647Z,18464.00
2017-08-31T09:06:17.642Z,18592.00
2017-08-31T09:07:17.638Z,19232.00
2017-08-31T09:08:17.633Z,16768.00
2017-08-31T09:09:17.633Z,11488.00
2017-08-31T09:10:17.629Z,11540.00
2017-08-31T09:11:17.626Z,10160.00
2017-08-31T09:12:17.620Z,7588.00
2017-08-31T09:13:17.618Z,7260.00
2017-08-31T09:14:17.614Z,9564.00
2017-08-31T09:15:17.610Z,8768.00
2017-08-31T09:16:17.605Z,7644.00
2017-08-31T09:17:17.598Z,6908.00
2017-08-31T09:18:17.617Z,9388.00
2017-08-31T09:19:17.592Z,12980.00
2017-08-31T09:20:17.587Z,18464.00
2017-08-31T09:21:17.584Z,22048.00
2017-08-31T09:22:17.581Z,25280.00
2017-08-31T09:23:17.578Z,21760.00
2017-08-31T09:24:17.573Z,16960.00
2017-08-31T09:25:17.577Z,13076.00
2017-08-31T09:26:17.574Z,10808.00
2017-08-31T09:27:17.572Z,6076.00
2017-08-31T09:28:17.569Z,4756.00
2017-08-31T09:29:17.568Z,8384.00
2017-08-31T09:30:17.565Z,7928.00
2017-08-31T09:31:17.563Z,7224.00
2017-08-31T09:32:17.559Z,6340.00
2017-08-31T09:33:17.555Z,5484.00
2017-08-31T09:34:17.551Z,4768.00
2017-08-31T09:35:17.551Z,4440.00
2017-08-31T09:36:17.547Z,4724.00
2017-08-31T09:37:17.546Z,4472.00
2017-08-31T09:38:17.544Z,3748.00
2017-08-31T09:39:17.541Z,3228.00
2017-08-31T09:40:17.538Z,3064.00
2017-08-31T09:41:17.543Z,2724.00
2017-08-31T09:42:17.538Z,3280.00
2017-08-31T09:43:17.536Z,2456.00
2017-08-31T09:44:17.533Z,3472.00
2017-08-31T09:45:17.537Z,7620.00
2017-08-31T09:46:17.527Z,10296.00
2017-08-31T09:47:17.525Z,9980.00
2017-08-31T09:48:17.521Z,8124.00
2017-08-31T09:49:17.515Z,7640.00
2017-08-31T09:50:17.512Z,7412.00
2017-08-31T09:51:17.508Z,9668.00
2017-08-31T09:52:17.506Z,9232.00
2017-08-31T09:53:17.503Z,8896.00
2017-08-31T09:54:17.500Z,9988.00
2017-08-31T09:55:17.498Z,9400.00
2017-08-31T09:56:17.493Z,7400.00
2017-08-31T09:57:17.497Z,5264.00
2017-08-31T09:58:17.493Z,4256.00
2017-08-31T09:59:17.490Z,3528.00
2017-08-31T10:00:17.487Z,4256.00
2017-08-31T10:01:17.483Z,4288.00
2017-08-31T10:02:17.481Z,4468.00
2017-08-31T10:03:17.478Z,3552.00
2017-08-31T10:04:17.473Z,4504.00
2017-08-31T10:05:17.466Z,6260.00
2017-08-31T10:06:17.462Z,7444.00
2017-08-31T10:07:17.461Z,10232.00
2017-08-31T10:08:17.456Z,17376.00
2017-08-31T10:09:17.453Z,20704.00
2017-08-31T10:10:17.450Z,25216.00
2017-08-31T10:11:17.447Z,26560.00
2017-08-31T10:12:17.444Z,21888.00
2017-08-31T10:13:17.445Z,19680.00
2017-08-31T10:14:17.443Z,19424.00
2017-08-31T10:15:17.440Z,22848.00
2017-08-31T10:16:17.437Z,23424.00
2017-08-31T10:17:17.434Z,23840.00
2017-08-31T10:18:17.432Z,26400.00
2017-08-31T10:19:17.429Z,21984.00
2017-08-31T10:20:17.427Z,20896.00
2017-08-31T10:21:17.421Z,16576.00
2017-08-31T10:22:17.421Z,16928.00
2017-08-31T10:23:17.419Z,15708.00
2017-08-31T10:24:17.417Z,15500.00
2017-08-31T10:25:17.416Z,13544.00
2017-08-31T10:26:17.414Z,11924.00
2017-08-31T10:27:17.414Z,8252.00
2017-08-31T10:28:17.414Z,7608.00
2017-08-31T10:29:17.416Z,9244.00
2017-08-31T10:30:17.417Z,9780.00
2017-08-31T10:31:17.417Z,9748.00
2017-08-31T10:32:17.416Z,9996.00
2017-08-31T10:33:17.413Z,8936.00
2017-08-31T10:34:17.414Z,8104.00
2017-08-31T10:35:17.414Z,7684.00
2017-08-31T10:36:17.411Z,6968.00
2017-08-31T10:37:17.405Z,6396.00
2017-08-31T10:38:17.406Z,6804.00
2017-08-31T10:39:17.404Z,7964.00
2017-08-31T10:40:17.406Z,8984.00
2017-08-31T10:41:17.434Z,9760.00
2017-08-31T10:42:17.405Z,10768.00
2017-08-31T10:43:17.404Z,11352.00
2017-08-31T10:44:17.400Z,11448.00
2017-08-31T10:45:17.402Z,11952.00
2017-08-31T10:46:17.395Z,14052.00
2017-08-31T10:47:17.393Z,16768.00
2017-08-31T10:48:17.391Z,20288.00
2017-08-31T10:49:17.389Z,33248.00
2017-08-31T10:50:17.388Z,21760.00
2017-08-31T10:51:17.387Z,28512.00
2017-08-31T10:52:17.385Z,25088.00
2017-08-31T10:53:17.387Z,23456.00
2017-08-31T10:54:17.389Z,29024.00
2017-08-31T10:55:17.386Z,31872.00
2017-08-31T10:56:17.385Z,24800.00
2017-08-31T10:57:17.384Z,21056.00
2017-08-31T10:58:17.386Z,13272.00
2017-08-31T10:59:17.388Z,13772.00
2017-08-31T11:00:17.385Z,11768.00
2017-08-31T11:01:17.386Z,8312.00
2017-08-31T11:02:17.384Z,8712.00
2017-08-31T11:03:17.393Z,12684.00
2017-08-31T11:04:17.385Z,12608.00
2017-08-31T11:05:17.400Z,13828.00
2017-08-31T11:06:17.388Z,14940.00
2017-08-31T11:07:17.393Z,15348.00
2017-08-31T11:08:17.393Z,11776.00
2017-08-31T11:09:17.393Z,11040.00
2017-08-31T11:10:17.413Z,13848.00
2017-08-31T11:11:17.446Z,13536.00
2017-08-31T11:12:17.397Z,14968.00
2017-08-31T11:13:17.398Z,16576.00
2017-08-31T11:14:17.404Z,17632.00
2017-08-31T11:15:17.408Z,23744.00
2017-08-31T11:16:17.400Z,21568.00
2017-08-31T11:17:17.404Z,20256.00
2017-08-31T11:18:17.401Z,15084.00
2017-08-31T11:19:17.400Z,12752.00
2017-08-31T11:20:17.398Z,12552.00
2017-08-31T11:21:17.400Z,14500.00
2017-08-31T11:22:17.401Z,14080.00
2017-08-31T11:23:17.402Z,12404.00
2017-08-31T11:24:17.404Z,12128.00
2017-08-31T11:25:17.415Z,16960.00
2017-08-31T11:26:17.412Z,19040.00
2017-08-31T11:27:17.528Z,15108.00
2017-08-31T11:28:17.591Z,17120.00
2017-08-31T11:29:17.589Z,18528.00
2017-08-31T11:30:17.551Z,21024.00
2017-08-31T11:31:17.537Z,19552.00
2017-08-31T11:32:17.509Z,17024.00
2017-08-31T11:33:17.585Z,16248.00
2017-08-31T11:34:17.495Z,15404.00
2017-08-31T11:35:17.483Z,15644.00
2017-08-31T11:36:17.561Z,15284.00
2017-08-31T11:37:17.521Z,15592.00
2017-08-31T11:38:17.418Z,17568.00
2017-08-31T11:39:17.418Z,18304.00
2017-08-31T11:40:17.418Z,20704.00
2017-08-31T11:41:17.424Z,20416.00
2017-08-31T11:42:17.424Z,20288.00
2017-08-31T11:43:17.427Z,19040.00
2017-08-31T11:44:17.427Z,19520.00
2017-08-31T11:45:17.424Z,19840.00
2017-08-31T11:46:17.426Z,18080.00
2017-08-31T11:47:17.430Z,16704.00
2017-08-31T11:48:17.428Z,17568.00
2017-08-31T11:49:17.433Z,18144.00
2017-08-31T11:50:17.435Z,16736.00
2017-08-31T11:51:17.436Z,12868.00
2017-08-31T11:52:17.437Z,13664.00
2017-08-31T11:53:17.439Z,12652.00
2017-08-31T11:54:17.440Z,18432.00
2017-08-31T11:55:17.442Z,18368.00
2017-08-31T11:56:17.442Z,14212.00
2017-08-31T11:57:17.440Z,12084.00
2017-08-31T11:58:17.442Z,12876.00
2017-08-31T11:59:17.443Z,15992.00
2017-08-31T12:00:17.444Z,15508.00
2017-08-31T12:01:17.446Z,14876.00
2017-08-31T12:02:17.448Z,14128.00
2017-08-31T12:03:17.449Z,15464.00
2017-08-31T12:04:17.450Z,17216.00
2017-08-31T12:05:17.457Z,17120.00
2017-08-31T12:06:17.457Z,17760.00
2017-08-31T12:07:17.459Z,15800.00
2017-08-31T12:08:17.459Z,14784.00
2017-08-31T12:09:17.467Z,12224.00
2017-08-31T12:10:17.464Z,10608.00
2017-08-31T12:11:17.465Z,9920.00
2017-08-31T12:12:17.465Z,7556.00
2017-08-31T12:13:17.463Z,7472.00
2017-08-31T12:14:17.464Z,8108.00
2017-08-31T12:15:17.471Z,7060.00
2017-08-31T12:16:17.469Z,6152.00
2017-08-31T12:17:17.468Z,4428.00
2017-08-31T12:18:17.470Z,3824.00
2017-08-31T12:19:17.485Z,4120.00
2017-08-31T12:20:17.473Z,4016.00
2017-08-31T12:21:17.477Z,3956.00
2017-08-31T12:22:17.478Z,5244.00
2017-08-31T12:23:17.479Z,5928.00
2017-08-31T12:24:17.478Z,5888.00
2017-08-31T12:25:17.478Z,6504.00
2017-08-31T12:26:17.479Z,6844.00
2017-08-31T12:27:17.479Z,6224.00
2017-08-31T12:28:17.482Z,6392.00
2017-08-31T12:29:17.475Z,5832.00
2017-08-31T12:30:17.475Z,3812.00
2017-08-31T12:31:17.475Z,3696.00